sensor_id;sensor_type;location;lat;lon;timestamp;P1;durP1;ratioP1;P2;durP2;ratioP2
66118;SDS011;52912;48.564;9.302;2023-06-22T00:00:07;11.10;;;5.55;;
66118;SDS011;52912;48.564;9.302;2023-06-22T00:02:34;11.23;;;5.63;;
66118;SDS011;52912;48.564;9.302;2023-06-22T00:05:00;10.32;;;5.63;;
66118;SDS011;52912;48.564;9.302;2023-06-22T00:07:25;11.40;;;5.60;;
66118;SDS011;52912;48.564;9.302;2023-06-22T00:09:50;9.25;;;5.70;;
66118;SDS011;52912;48.564;9.302;2023-06-22T00:12:16;13.23;;;6.20;;
66118;SDS011;52912;48.564;9.302;2023-06-22T00:14:41;9.90;;;5.97;;
66118;SDS011;52912;48.564;9.302;2023-06-22T00:17:07;10.88;;;5.50;;
66118;SDS011;52912;48.564;9.302;2023-06-22T00:19:33;10.10;;;5.75;;
66118;SDS011;52912;48.564;9.302;2023-06-22T00:21:59;13.20;;;6.38;;
66118;SDS011;52912;48.564;9.302;2023-06-22T00:24:24;13.25;;;6.15;;
66118;SDS011;52912;48.564;9.302;2023-06-22T00:26:50;10.40;;;6.45;;
66118;SDS011;52912;48.564;9.302;2023-06-22T00:29:15;13.20;;;6.22;;
66118;SDS011;52912;48.564;9.302;2023-06-22T00:31:41;10.70;;;5.88;;
66118;SDS011;52912;48.564;9.302;2023-06-22T00:34:06;10.20;;;6.13;;
66118;SDS011;52912;48.564;9.302;2023-06-22T00:36:34;11.02;;;5.90;;
66118;SDS011;52912;48.564;9.302;2023-06-22T00:38:59;9.70;;;6.18;;
66118;SDS011;52912;48.564;9.302;2023-06-22T00:41:25;12.50;;;6.40;;
66118;SDS011;52912;48.564;9.302;2023-06-22T00:43:51;15.80;;;6.47;;
66118;SDS011;52912;48.564;9.302;2023-06-22T00:46:16;10.98;;;5.80;;
66118;SDS011;52912;48.564;9.302;2023-06-22T00:48:42;12.57;;;7.40;;
66118;SDS011;52912;48.564;9.302;2023-06-22T00:51:07;12.10;;;6.72;;
66118;SDS011;52912;48.564;9.302;2023-06-22T00:53:34;10.60;;;6.72;;
66118;SDS011;52912;48.564;9.302;2023-06-22T00:56:00;10.93;;;6.15;;
66118;SDS011;52912;48.564;9.302;2023-06-22T00:58:26;8.98;;;5.80;;
66118;SDS011;52912;48.564;9.302;2023-06-22T01:00:51;13.30;;;6.40;;
66118;SDS011;52912;48.564;9.302;2023-06-22T01:03:17;10.32;;;5.70;;
66118;SDS011;52912;48.564;9.302;2023-06-22T01:05:42;11.32;;;6.57;;
66118;SDS011;52912;48.564;9.302;2023-06-22T01:08:11;13.07;;;7.05;;
66118;SDS011;52912;48.564;9.302;2023-06-22T01:10:48;10.95;;;6.72;;
66118;SDS011;52912;48.564;9.302;2023-06-22T01:13:18;10.20;;;6.93;;
66118;SDS011;52912;48.564;9.302;2023-06-22T01:15:51;13.02;;;6.88;;
66118;SDS011;52912;48.564;9.302;2023-06-22T01:18:21;8.98;;;6.00;;
66118;SDS011;52912;48.564;9.302;2023-06-22T01:20:48;11.75;;;6.35;;
66118;SDS011;52912;48.564;9.302;2023-06-22T01:23:18;10.45;;;6.38;;
66118;SDS011;52912;48.564;9.302;2023-06-22T01:25:54;12.45;;;6.32;;
66118;SDS011;52912;48.564;9.302;2023-06-22T01:28:36;11.35;;;6.30;;
66118;SDS011;52912;48.564;9.302;2023-06-22T01:31:07;11.13;;;6.60;;
66118;SDS011;52912;48.564;9.302;2023-06-22T01:33:34;9.10;;;5.82;;
66118;SDS011;52912;48.564;9.302;2023-06-22T01:36:02;13.20;;;7.30;;
66118;SDS011;52912;48.564;9.302;2023-06-22T01:38:29;11.90;;;6.22;;
66118;SDS011;52912;48.564;9.302;2023-06-22T01:40:55;10.02;;;6.35;;
66118;SDS011;52912;48.564;9.302;2023-06-22T01:43:22;12.13;;;6.00;;
66118;SDS011;52912;48.564;9.302;2023-06-22T01:45:51;11.90;;;6.60;;
66118;SDS011;52912;48.564;9.302;2023-06-22T01:48:17;10.20;;;6.82;;
66118;SDS011;52912;48.564;9.302;2023-06-22T01:50:44;9.60;;;6.55;;
66118;SDS011;52912;48.564;9.302;2023-06-22T01:53:10;13.07;;;6.80;;
66118;SDS011;52912;48.564;9.302;2023-06-22T01:55:35;13.43;;;7.05;;
66118;SDS011;52912;48.564;9.302;2023-06-22T01:58:01;13.88;;;7.10;;
66118;SDS011;52912;48.564;9.302;2023-06-22T02:00:26;9.95;;;6.85;;
66118;SDS011;52912;48.564;9.302;2023-06-22T02:02:59;10.57;;;7.13;;
66118;SDS011;52912;48.564;9.302;2023-06-22T02:05:28;13.40;;;8.02;;
66118;SDS011;52912;48.564;9.302;2023-06-22T02:08:00;16.77;;;8.57;;
66118;SDS011;52912;48.564;9.302;2023-06-22T02:10:32;13.75;;;8.05;;
66118;SDS011;52912;48.564;9.302;2023-06-22T02:12:59;15.40;;;8.43;;
66118;SDS011;52912;48.564;9.302;2023-06-22T02:15:25;11.85;;;8.30;;
66118;SDS011;52912;48.564;9.302;2023-06-22T02:17:51;11.85;;;8.48;;
66118;SDS011;52912;48.564;9.302;2023-06-22T02:20:18;14.77;;;8.10;;
66118;SDS011;52912;48.564;9.302;2023-06-22T02:22:44;11.75;;;7.93;;
66118;SDS011;52912;48.564;9.302;2023-06-22T02:25:09;12.65;;;7.68;;
66118;SDS011;52912;48.564;9.302;2023-06-22T02:27:35;10.57;;;6.53;;
66118;SDS011;52912;48.564;9.302;2023-06-22T02:30:00;10.45;;;6.97;;
66118;SDS011;52912;48.564;9.302;2023-06-22T02:32:26;13.05;;;6.82;;
66118;SDS011;52912;48.564;9.302;2023-06-22T02:34:52;11.43;;;6.28;;
66118;SDS011;52912;48.564;9.302;2023-06-22T02:37:19;13.48;;;7.13;;
66118;SDS011;52912;48.564;9.302;2023-06-22T02:39:44;13.25;;;7.20;;
66118;SDS011;52912;48.564;9.302;2023-06-22T02:42:10;15.45;;;7.07;;
66118;SDS011;52912;48.564;9.302;2023-06-22T02:44:35;9.43;;;6.53;;
66118;SDS011;52912;48.564;9.302;2023-06-22T02:47:01;9.57;;;6.63;;
66118;SDS011;52912;48.564;9.302;2023-06-22T02:49:26;12.00;;;7.00;;
66118;SDS011;52912;48.564;9.302;2023-06-22T02:51:52;11.05;;;7.00;;
66118;SDS011;52912;48.564;9.302;2023-06-22T02:54:18;15.95;;;7.40;;
66118;SDS011;52912;48.564;9.302;2023-06-22T02:56:44;14.38;;;7.32;;
66118;SDS011;52912;48.564;9.302;2023-06-22T02:59:09;11.18;;;7.22;;
66118;SDS011;52912;48.564;9.302;2023-06-22T03:01:35;14.90;;;7.38;;
66118;SDS011;52912;48.564;9.302;2023-06-22T03:04:00;10.55;;;7.07;;
66118;SDS011;52912;48.564;9.302;2023-06-22T03:06:26;10.30;;;7.25;;
66118;SDS011;52912;48.564;9.302;2023-06-22T03:08:51;11.00;;;7.13;;
66118;SDS011;52912;48.564;9.302;2023-06-22T03:11:18;16.83;;;7.80;;
66118;SDS011;52912;48.564;9.302;2023-06-22T03:13:44;15.23;;;7.90;;
66118;SDS011;52912;48.564;9.302;2023-06-22T03:16:09;12.80;;;7.60;;
66118;SDS011;52912;48.564;9.302;2023-06-22T03:18:35;11.93;;;7.25;;
66118;SDS011;52912;48.564;9.302;2023-06-22T03:21:00;11.43;;;7.60;;
66118;SDS011;52912;48.564;9.302;2023-06-22T03:23:26;13.80;;;7.90;;
66118;SDS011;52912;48.564;9.302;2023-06-22T03:25:51;11.10;;;7.30;;
66118;SDS011;52912;48.564;9.302;2023-06-22T03:28:18;13.60;;;8.30;;
66118;SDS011;52912;48.564;9.302;2023-06-22T03:30:43;12.13;;;7.55;;
66118;SDS011;52912;48.564;9.302;2023-06-22T03:33:09;11.88;;;7.47;;
66118;SDS011;52912;48.564;9.302;2023-06-22T03:35:34;12.48;;;7.95;;
66118;SDS011;52912;48.564;9.302;2023-06-22T03:38:00;13.38;;;7.40;;
66118;SDS011;52912;48.564;9.302;2023-06-22T03:40:25;13.38;;;8.25;;
66118;SDS011;52912;48.564;9.302;2023-06-22T03:42:50;12.60;;;7.53;;
66118;SDS011;52912;48.564;9.302;2023-06-22T03:45:17;10.73;;;7.10;;
66118;SDS011;52912;48.564;9.302;2023-06-22T03:47:43;14.43;;;7.65;;
66118;SDS011;52912;48.564;9.302;2023-06-22T03:50:08;10.95;;;7.25;;
66118;SDS011;52912;48.564;9.302;2023-06-22T03:52:34;10.32;;;7.38;;
66118;SDS011;52912;48.564;9.302;2023-06-22T03:55:00;15.15;;;7.50;;
66118;SDS011;52912;48.564;9.302;2023-06-22T03:57:25;10.30;;;6.85;;
66118;SDS011;52912;48.564;9.302;2023-06-22T03:59:51;11.32;;;7.35;;
66118;SDS011;52912;48.564;9.302;2023-06-22T04:02:17;13.25;;;7.57;;
66118;SDS011;52912;48.564;9.302;2023-06-22T04:04:43;14.57;;;7.32;;
66118;SDS011;52912;48.564;9.302;2023-06-22T04:07:08;12.18;;;7.90;;
66118;SDS011;52912;48.564;9.302;2023-06-22T04:09:34;15.35;;;7.53;;
66118;SDS011;52912;48.564;9.302;2023-06-22T04:12:00;15.13;;;7.57;;
66118;SDS011;52912;48.564;9.302;2023-06-22T04:14:26;10.63;;;7.28;;
66118;SDS011;52912;48.564;9.302;2023-06-22T04:16:51;13.18;;;7.00;;
66118;SDS011;52912;48.564;9.302;2023-06-22T04:19:18;14.85;;;7.53;;
66118;SDS011;52912;48.564;9.302;2023-06-22T04:21:43;13.85;;;7.93;;
66118;SDS011;52912;48.564;9.302;2023-06-22T04:24:09;13.68;;;7.55;;
66118;SDS011;52912;48.564;9.302;2023-06-22T04:26:34;12.93;;;7.78;;
66118;SDS011;52912;48.564;9.302;2023-06-22T04:29:00;12.30;;;7.55;;
66118;SDS011;52912;48.564;9.302;2023-06-22T04:31:25;11.55;;;6.93;;
66118;SDS011;52912;48.564;9.302;2023-06-22T04:33:51;12.60;;;7.03;;
66118;SDS011;52912;48.564;9.302;2023-06-22T04:36:18;14.02;;;8.55;;
66118;SDS011;52912;48.564;9.302;2023-06-22T04:38:43;11.48;;;7.50;;
66118;SDS011;52912;48.564;9.302;2023-06-22T04:41:08;14.52;;;7.35;;
66118;SDS011;52912;48.564;9.302;2023-06-22T04:43:34;10.45;;;6.47;;
66118;SDS011;52912;48.564;9.302;2023-06-22T04:45:59;9.73;;;6.63;;
66118;SDS011;52912;48.564;9.302;2023-06-22T04:48:25;11.73;;;7.50;;
66118;SDS011;52912;48.564;9.302;2023-06-22T04:50:50;12.73;;;7.45;;
66118;SDS011;52912;48.564;9.302;2023-06-22T04:53:17;13.75;;;7.97;;
66118;SDS011;52912;48.564;9.302;2023-06-22T04:55:42;16.77;;;7.75;;
66118;SDS011;52912;48.564;9.302;2023-06-22T04:58:08;16.92;;;7.78;;
66118;SDS011;52912;48.564;9.302;2023-06-22T05:00:33;11.88;;;7.45;;
66118;SDS011;52912;48.564;9.302;2023-06-22T05:02:59;11.63;;;7.80;;
66118;SDS011;52912;48.564;9.302;2023-06-22T05:05:24;15.50;;;7.43;;
66118;SDS011;52912;48.564;9.302;2023-06-22T05:07:50;13.13;;;8.10;;
66118;SDS011;52912;48.564;9.302;2023-06-22T05:10:18;14.20;;;8.30;;
66118;SDS011;52912;48.564;9.302;2023-06-22T05:12:44;13.98;;;8.55;;
66118;SDS011;52912;48.564;9.302;2023-06-22T05:15:10;13.60;;;8.52;;
66118;SDS011;52912;48.564;9.302;2023-06-22T05:17:36;12.07;;;8.45;;
66118;SDS011;52912;48.564;9.302;2023-06-22T05:20:02;15.80;;;8.52;;
66118;SDS011;52912;48.564;9.302;2023-06-22T05:22:28;14.68;;;8.50;;
66118;SDS011;52912;48.564;9.302;2023-06-22T05:24:53;17.27;;;8.30;;
66118;SDS011;52912;48.564;9.302;2023-06-22T05:27:20;16.25;;;9.05;;
66118;SDS011;52912;48.564;9.302;2023-06-22T05:29:46;15.02;;;8.18;;
66118;SDS011;52912;48.564;9.302;2023-06-22T05:32:11;19.23;;;7.45;;
66118;SDS011;52912;48.564;9.302;2023-06-22T05:34:37;11.50;;;7.97;;
66118;SDS011;52912;48.564;9.302;2023-06-22T05:37:02;11.50;;;7.72;;
66118;SDS011;52912;48.564;9.302;2023-06-22T05:39:28;15.50;;;8.32;;
66118;SDS011;52912;48.564;9.302;2023-06-22T05:41:53;17.15;;;8.85;;
66118;SDS011;52912;48.564;9.302;2023-06-22T05:44:20;14.77;;;8.18;;
66118;SDS011;52912;48.564;9.302;2023-06-22T05:46:46;16.42;;;8.20;;
66118;SDS011;52912;48.564;9.302;2023-06-22T05:49:11;13.07;;;7.60;;
66118;SDS011;52912;48.564;9.302;2023-06-22T05:51:37;18.30;;;8.30;;
66118;SDS011;52912;48.564;9.302;2023-06-22T05:54:03;11.90;;;7.30;;
66118;SDS011;52912;48.564;9.302;2023-06-22T05:56:28;15.10;;;8.15;;
66118;SDS011;52912;48.564;9.302;2023-06-22T05:58:54;11.48;;;8.10;;
66118;SDS011;52912;48.564;9.302;2023-06-22T06:01:20;12.63;;;7.38;;
66118;SDS011;52912;48.564;9.302;2023-06-22T06:03:46;16.05;;;7.70;;
66118;SDS011;52912;48.564;9.302;2023-06-22T06:06:11;15.45;;;8.07;;
66118;SDS011;52912;48.564;9.302;2023-06-22T06:08:37;10.63;;;7.22;;
66118;SDS011;52912;48.564;9.302;2023-06-22T06:11:02;12.02;;;7.38;;
66118;SDS011;52912;48.564;9.302;2023-06-22T06:13:28;14.75;;;7.25;;
66118;SDS011;52912;48.564;9.302;2023-06-22T06:15:53;11.52;;;6.68;;
66118;SDS011;52912;48.564;9.302;2023-06-22T06:18:20;11.45;;;7.13;;
66118;SDS011;52912;48.564;9.302;2023-06-22T06:20:46;13.90;;;7.22;;
66118;SDS011;52912;48.564;9.302;2023-06-22T06:23:11;14.63;;;7.15;;
66118;SDS011;52912;48.564;9.302;2023-06-22T06:25:37;15.43;;;7.35;;
66118;SDS011;52912;48.564;9.302;2023-06-22T06:28:03;12.40;;;7.38;;
66118;SDS011;52912;48.564;9.302;2023-06-22T06:30:29;12.13;;;6.50;;
66118;SDS011;52912;48.564;9.302;2023-06-22T06:32:54;13.77;;;7.15;;
66118;SDS011;52912;48.564;9.302;2023-06-22T06:35:21;8.75;;;6.30;;
66118;SDS011;52912;48.564;9.302;2023-06-22T06:37:48;15.27;;;6.75;;
66118;SDS011;52912;48.564;9.302;2023-06-22T06:40:15;18.27;;;6.43;;
66118;SDS011;52912;48.564;9.302;2023-06-22T06:42:42;14.32;;;6.20;;
66118;SDS011;52912;48.564;9.302;2023-06-22T06:45:09;12.55;;;6.00;;
66118;SDS011;52912;48.564;9.302;2023-06-22T06:47:35;10.23;;;5.90;;
66118;SDS011;52912;48.564;9.302;2023-06-22T06:50:00;16.83;;;6.05;;
66118;SDS011;52912;48.564;9.302;2023-06-22T06:52:27;10.35;;;6.32;;
66118;SDS011;52912;48.564;9.302;2023-06-22T06:54:53;15.93;;;6.05;;
66118;SDS011;52912;48.564;9.302;2023-06-22T06:57:18;13.63;;;6.07;;
66118;SDS011;52912;48.564;9.302;2023-06-22T06:59:44;16.88;;;6.32;;
66118;SDS011;52912;48.564;9.302;2023-06-22T07:02:09;10.80;;;5.80;;
66118;SDS011;52912;48.564;9.302;2023-06-22T07:04:35;10.25;;;5.57;;
66118;SDS011;52912;48.564;9.302;2023-06-22T07:07:01;11.63;;;5.43;;
66118;SDS011;52912;48.564;9.302;2023-06-22T07:09:28;11.82;;;5.65;;
66118;SDS011;52912;48.564;9.302;2023-06-22T07:11:54;12.25;;;5.40;;
66118;SDS011;52912;48.564;9.302;2023-06-22T07:14:19;9.43;;;5.75;;
66118;SDS011;52912;48.564;9.302;2023-06-22T07:16:45;13.52;;;5.57;;
66118;SDS011;52912;48.564;9.302;2023-06-22T07:19:11;11.57;;;5.82;;
66118;SDS011;52912;48.564;9.302;2023-06-22T07:21:36;12.48;;;5.80;;
66118;SDS011;52912;48.564;9.302;2023-06-22T07:24:02;12.65;;;5.85;;
66118;SDS011;52912;48.564;9.302;2023-06-22T07:26:29;10.05;;;5.75;;
66118;SDS011;52912;48.564;9.302;2023-06-22T07:28:54;10.52;;;5.40;;
66118;SDS011;52912;48.564;9.302;2023-06-22T07:31:20;21.92;;;6.30;;
66118;SDS011;52912;48.564;9.302;2023-06-22T07:33:45;14.10;;;6.22;;
66118;SDS011;52912;48.564;9.302;2023-06-22T07:36:11;11.57;;;5.50;;
66118;SDS011;52912;48.564;9.302;2023-06-22T07:38:36;14.90;;;5.75;;
66118;SDS011;52912;48.564;9.302;2023-06-22T07:41:02;12.15;;;5.30;;
66118;SDS011;52912;48.564;9.302;2023-06-22T07:43:29;11.88;;;5.60;;
66118;SDS011;52912;48.564;9.302;2023-06-22T07:45:54;14.68;;;5.50;;
66118;SDS011;52912;48.564;9.302;2023-06-22T07:48:19;12.13;;;5.20;;
66118;SDS011;52912;48.564;9.302;2023-06-22T07:50:45;12.02;;;5.60;;
66118;SDS011;52912;48.564;9.302;2023-06-22T07:53:11;9.57;;;4.50;;
66118;SDS011;52912;48.564;9.302;2023-06-22T07:55:36;11.50;;;4.70;;
66118;SDS011;52912;48.564;9.302;2023-06-22T07:58:02;10.15;;;5.18;;
66118;SDS011;52912;48.564;9.302;2023-06-22T08:00:28;9.18;;;4.68;;
66118;SDS011;52912;48.564;9.302;2023-06-22T08:02:54;10.57;;;5.28;;
66118;SDS011;52912;48.564;9.302;2023-06-22T08:05:19;13.05;;;5.18;;
66118;SDS011;52912;48.564;9.302;2023-06-22T08:07:45;13.05;;;5.20;;
66118;SDS011;52912;48.564;9.302;2023-06-22T08:10:10;10.40;;;4.60;;
66118;SDS011;52912;48.564;9.302;2023-06-22T08:12:36;14.82;;;5.50;;
66118;SDS011;52912;48.564;9.302;2023-06-22T08:15:02;11.52;;;4.80;;
66118;SDS011;52912;48.564;9.302;2023-06-22T08:17:30;12.48;;;4.85;;
66118;SDS011;52912;48.564;9.302;2023-06-22T08:19:55;11.05;;;4.97;;
66118;SDS011;52912;48.564;9.302;2023-06-22T08:22:21;8.30;;;4.93;;
66118;SDS011;52912;48.564;9.302;2023-06-22T08:24:46;17.00;;;4.80;;
66118;SDS011;52912;48.564;9.302;2023-06-22T08:27:11;11.32;;;4.85;;
66118;SDS011;52912;48.564;9.302;2023-06-22T08:29:37;14.70;;;5.03;;
66118;SDS011;52912;48.564;9.302;2023-06-22T08:32:03;11.88;;;5.57;;
66118;SDS011;52912;48.564;9.302;2023-06-22T08:34:30;10.02;;;5.65;;
66118;SDS011;52912;48.564;9.302;2023-06-22T08:36:55;16.55;;;6.00;;
66118;SDS011;52912;48.564;9.302;2023-06-22T08:39:21;11.95;;;6.35;;
66118;SDS011;52912;48.564;9.302;2023-06-22T08:41:46;10.57;;;5.28;;
66118;SDS011;52912;48.564;9.302;2023-06-22T08:44:12;10.00;;;5.53;;
66118;SDS011;52912;48.564;9.302;2023-06-22T08:46:37;12.93;;;5.05;;
66118;SDS011;52912;48.564;9.302;2023-06-22T08:49:03;11.48;;;5.30;;
66118;SDS011;52912;48.564;9.302;2023-06-22T08:51:29;11.60;;;5.03;;
66118;SDS011;52912;48.564;9.302;2023-06-22T08:53:55;12.18;;;5.13;;
66118;SDS011;52912;48.564;9.302;2023-06-22T08:56:20;13.18;;;5.13;;
66118;SDS011;52912;48.564;9.302;2023-06-22T08:58:46;9.98;;;4.93;;
66118;SDS011;52912;48.564;9.302;2023-06-22T09:01:11;13.00;;;5.25;;
66118;SDS011;52912;48.564;9.302;2023-06-22T09:03:37;10.90;;;5.13;;
66118;SDS011;52912;48.564;9.302;2023-06-22T09:06:02;13.85;;;5.57;;
66118;SDS011;52912;48.564;9.302;2023-06-22T09:08:29;14.80;;;5.38;;
66118;SDS011;52912;48.564;9.302;2023-06-22T09:10:55;11.85;;;5.22;;
66118;SDS011;52912;48.564;9.302;2023-06-22T09:13:20;10.90;;;5.45;;
66118;SDS011;52912;48.564;9.302;2023-06-22T09:15:46;11.40;;;5.25;;
66118;SDS011;52912;48.564;9.302;2023-06-22T09:18:11;11.43;;;4.90;;
66118;SDS011;52912;48.564;9.302;2023-06-22T09:20:38;10.85;;;4.80;;
66118;SDS011;52912;48.564;9.302;2023-06-22T09:23:04;12.43;;;5.00;;
66118;SDS011;52912;48.564;9.302;2023-06-22T09:25:31;10.60;;;5.20;;
66118;SDS011;52912;48.564;9.302;2023-06-22T09:27:56;13.18;;;5.05;;
66118;SDS011;52912;48.564;9.302;2023-06-22T09:30:21;10.88;;;6.03;;
66118;SDS011;52912;48.564;9.302;2023-06-22T09:32:47;11.75;;;5.63;;
66118;SDS011;52912;48.564;9.302;2023-06-22T09:35:12;14.80;;;5.57;;
66118;SDS011;52912;48.564;9.302;2023-06-22T09:37:38;10.30;;;5.20;;
66118;SDS011;52912;48.564;9.302;2023-06-22T09:40:04;12.10;;;5.85;;
66118;SDS011;52912;48.564;9.302;2023-06-22T09:42:32;14.18;;;6.18;;
66118;SDS011;52912;48.564;9.302;2023-06-22T09:44:57;13.13;;;5.50;;
66118;SDS011;52912;48.564;9.302;2023-06-22T09:47:23;11.38;;;5.60;;
66118;SDS011;52912;48.564;9.302;2023-06-22T09:49:48;14.38;;;5.72;;
66118;SDS011;52912;48.564;9.302;2023-06-22T09:52:14;13.57;;;5.28;;
66118;SDS011;52912;48.564;9.302;2023-06-22T09:54:39;13.07;;;5.38;;
66118;SDS011;52912;48.564;9.302;2023-06-22T09:57:04;13.98;;;5.40;;
66118;SDS011;52912;48.564;9.302;2023-06-22T09:59:31;13.50;;;5.47;;
66118;SDS011;52912;48.564;9.302;2023-06-22T10:01:57;15.95;;;5.97;;
66118;SDS011;52912;48.564;9.302;2023-06-22T10:04:22;14.63;;;5.25;;
66118;SDS011;52912;48.564;9.302;2023-06-22T10:06:48;12.65;;;5.63;;
66118;SDS011;52912;48.564;9.302;2023-06-22T10:09:13;14.35;;;5.70;;
66118;SDS011;52912;48.564;9.302;2023-06-22T10:11:39;12.00;;;5.13;;
66118;SDS011;52912;48.564;9.302;2023-06-22T10:14:04;14.00;;;5.90;;
66118;SDS011;52912;48.564;9.302;2023-06-22T10:16:31;12.35;;;5.30;;
66118;SDS011;52912;48.564;9.302;2023-06-22T10:18:57;12.25;;;5.93;;
66118;SDS011;52912;48.564;9.302;2023-06-22T10:21:23;11.77;;;5.97;;
66118;SDS011;52912;48.564;9.302;2023-06-22T10:23:48;16.25;;;6.15;;
66118;SDS011;52912;48.564;9.302;2023-06-22T10:26:13;17.45;;;6.13;;
66118;SDS011;52912;48.564;9.302;2023-06-22T10:28:39;12.40;;;5.50;;
66118;SDS011;52912;48.564;9.302;2023-06-22T10:31:04;13.65;;;6.07;;
66118;SDS011;52912;48.564;9.302;2023-06-22T10:33:31;15.80;;;5.82;;
66118;SDS011;52912;48.564;9.302;2023-06-22T10:35:57;12.88;;;5.68;;
66118;SDS011;52912;48.564;9.302;2023-06-22T10:38:22;14.90;;;5.90;;
66118;SDS011;52912;48.564;9.302;2023-06-22T10:40:47;12.80;;;5.57;;
66118;SDS011;52912;48.564;9.302;2023-06-22T10:43:13;13.30;;;5.88;;
66118;SDS011;52912;48.564;9.302;2023-06-22T10:45:38;11.88;;;5.60;;
66118;SDS011;52912;48.564;9.302;2023-06-22T10:48:04;13.95;;;5.72;;
66118;SDS011;52912;48.564;9.302;2023-06-22T10:50:31;10.82;;;5.50;;
66118;SDS011;52912;48.564;9.302;2023-06-22T10:52:57;12.18;;;5.57;;
66118;SDS011;52912;48.564;9.302;2023-06-22T10:55:22;11.40;;;5.47;;
66118;SDS011;52912;48.564;9.302;2023-06-22T10:57:48;13.55;;;5.40;;
66118;SDS011;52912;48.564;9.302;2023-06-22T11:00:14;11.50;;;5.65;;
66118;SDS011;52912;48.564;9.302;2023-06-22T11:02:39;14.27;;;5.75;;
66118;SDS011;52912;48.564;9.302;2023-06-22T11:05:05;12.55;;;5.30;;
66118;SDS011;52912;48.564;9.302;2023-06-22T11:07:33;16.65;;;5.72;;
66118;SDS011;52912;48.564;9.302;2023-06-22T11:09:58;12.90;;;5.65;;
66118;SDS011;52912;48.564;9.302;2023-06-22T11:12:24;14.80;;;5.60;;
66118;SDS011;52912;48.564;9.302;2023-06-22T11:14:49;18.88;;;6.00;;
66118;SDS011;52912;48.564;9.302;2023-06-22T11:17:14;16.20;;;5.30;;
66118;SDS011;52912;48.564;9.302;2023-06-22T11:19:40;16.60;;;5.38;;
66118;SDS011;52912;48.564;9.302;2023-06-22T11:22:05;12.98;;;5.50;;
66118;SDS011;52912;48.564;9.302;2023-06-22T11:24:33;11.90;;;5.28;;
66118;SDS011;52912;48.564;9.302;2023-06-22T11:26:59;21.70;;;5.75;;
66118;SDS011;52912;48.564;9.302;2023-06-22T11:29:24;14.98;;;5.47;;
66118;SDS011;52912;48.564;9.302;2023-06-22T11:31:49;13.70;;;5.60;;
66118;SDS011;52912;48.564;9.302;2023-06-22T11:34:15;14.50;;;4.93;;
66118;SDS011;52912;48.564;9.302;2023-06-22T11:36:40;13.65;;;5.60;;
66118;SDS011;52912;48.564;9.302;2023-06-22T11:39:07;15.20;;;5.60;;
66118;SDS011;52912;48.564;9.302;2023-06-22T11:41:34;11.25;;;5.75;;
66118;SDS011;52912;48.564;9.302;2023-06-22T11:44:00;15.32;;;5.43;;
66118;SDS011;52912;48.564;9.302;2023-06-22T11:46:25;15.13;;;5.55;;
66118;SDS011;52912;48.564;9.302;2023-06-22T11:48:51;18.52;;;5.53;;
66118;SDS011;52912;48.564;9.302;2023-06-22T11:51:16;13.70;;;5.55;;
66118;SDS011;52912;48.564;9.302;2023-06-22T11:53:42;21.45;;;5.63;;
66118;SDS011;52912;48.564;9.302;2023-06-22T11:56:07;13.38;;;6.18;;
66118;SDS011;52912;48.564;9.302;2023-06-22T11:58:34;15.02;;;5.80;;
66118;SDS011;52912;48.564;9.302;2023-06-22T12:01:00;16.65;;;5.60;;
66118;SDS011;52912;48.564;9.302;2023-06-22T12:03:25;15.32;;;5.93;;
66118;SDS011;52912;48.564;9.302;2023-06-22T12:05:51;12.70;;;5.60;;
66118;SDS011;52912;48.564;9.302;2023-06-22T12:08:16;17.75;;;5.97;;
66118;SDS011;52912;48.564;9.302;2023-06-22T12:10:42;12.43;;;5.25;;
66118;SDS011;52912;48.564;9.302;2023-06-22T12:13:07;13.18;;;5.55;;
66118;SDS011;52912;48.564;9.302;2023-06-22T12:15:34;15.02;;;5.63;;
66118;SDS011;52912;48.564;9.302;2023-06-22T12:17:59;15.93;;;5.25;;
66118;SDS011;52912;48.564;9.302;2023-06-22T12:20:25;15.57;;;5.75;;
66118;SDS011;52912;48.564;9.302;2023-06-22T12:22:50;14.65;;;5.90;;
66118;SDS011;52912;48.564;9.302;2023-06-22T12:25:16;10.98;;;5.35;;
66118;SDS011;52912;48.564;9.302;2023-06-22T12:27:41;13.10;;;5.97;;
66118;SDS011;52912;48.564;9.302;2023-06-22T12:30:08;14.88;;;5.30;;
66118;SDS011;52912;48.564;9.302;2023-06-22T12:32:35;12.60;;;5.47;;
66118;SDS011;52912;48.564;9.302;2023-06-22T12:35:00;13.63;;;5.53;;
66118;SDS011;52912;48.564;9.302;2023-06-22T12:37:26;17.02;;;5.63;;
66118;SDS011;52912;48.564;9.302;2023-06-22T12:39:53;15.65;;;5.60;;
66118;SDS011;52912;48.564;9.302;2023-06-22T12:42:19;11.20;;;5.20;;
66118;SDS011;52912;48.564;9.302;2023-06-22T12:44:44;16.77;;;6.38;;
66118;SDS011;52912;48.564;9.302;2023-06-22T12:47:10;13.00;;;5.70;;
66118;SDS011;52912;48.564;9.302;2023-06-22T12:49:36;16.65;;;6.10;;
66118;SDS011;52912;48.564;9.302;2023-06-22T12:52:02;12.77;;;5.57;;
66118;SDS011;52912;48.564;9.302;2023-06-22T12:54:28;13.73;;;5.32;;
66118;SDS011;52912;48.564;9.302;2023-06-22T12:56:53;13.50;;;5.40;;
66118;SDS011;52912;48.564;9.302;2023-06-22T12:59:19;17.75;;;5.70;;
66118;SDS011;52912;48.564;9.302;2023-06-22T13:01:44;14.35;;;5.65;;
66118;SDS011;52912;48.564;9.302;2023-06-22T13:04:10;15.27;;;5.68;;
66118;SDS011;52912;48.564;9.302;2023-06-22T13:06:37;16.75;;;5.50;;
66118;SDS011;52912;48.564;9.302;2023-06-22T13:09:02;18.60;;;5.50;;
66118;SDS011;52912;48.564;9.302;2023-06-22T13:11:28;18.13;;;5.70;;
66118;SDS011;52912;48.564;9.302;2023-06-22T13:13:53;16.15;;;5.07;;
66118;SDS011;52912;48.564;9.302;2023-06-22T13:16:18;16.42;;;5.03;;
66118;SDS011;52912;48.564;9.302;2023-06-22T13:18:44;12.68;;;5.47;;
66118;SDS011;52912;48.564;9.302;2023-06-22T13:21:09;12.75;;;5.20;;
66118;SDS011;52912;48.564;9.302;2023-06-22T13:23:36;17.77;;;5.72;;
66118;SDS011;52912;48.564;9.302;2023-06-22T13:26:02;12.75;;;5.70;;
66118;SDS011;52912;48.564;9.302;2023-06-22T13:28:27;14.55;;;5.63;;
66118;SDS011;52912;48.564;9.302;2023-06-22T13:30:53;15.75;;;5.60;;
66118;SDS011;52912;48.564;9.302;2023-06-22T13:33:18;13.60;;;5.43;;
66118;SDS011;52912;48.564;9.302;2023-06-22T13:35:43;15.02;;;5.65;;
66118;SDS011;52912;48.564;9.302;2023-06-22T13:38:09;13.30;;;5.53;;
66118;SDS011;52912;48.564;9.302;2023-06-22T13:40:36;16.90;;;5.90;;
66118;SDS011;52912;48.564;9.302;2023-06-22T13:43:01;13.20;;;5.03;;
66118;SDS011;52912;48.564;9.302;2023-06-22T13:45:27;14.20;;;4.85;;
66118;SDS011;52912;48.564;9.302;2023-06-22T13:47:52;12.68;;;4.80;;
66118;SDS011;52912;48.564;9.302;2023-06-22T13:50:18;15.90;;;5.88;;
66118;SDS011;52912;48.564;9.302;2023-06-22T13:52:44;14.20;;;5.57;;
66118;SDS011;52912;48.564;9.302;2023-06-22T13:55:09;13.35;;;5.25;;
66118;SDS011;52912;48.564;9.302;2023-06-22T13:57:36;17.77;;;5.68;;
66118;SDS011;52912;48.564;9.302;2023-06-22T14:00:01;17.45;;;5.38;;
66118;SDS011;52912;48.564;9.302;2023-06-22T14:02:27;17.23;;;5.88;;
66118;SDS011;52912;48.564;9.302;2023-06-22T14:04:52;13.57;;;5.45;;
66118;SDS011;52912;48.564;9.302;2023-06-22T14:07:18;14.93;;;5.20;;
66118;SDS011;52912;48.564;9.302;2023-06-22T14:09:43;14.00;;;4.88;;
66118;SDS011;52912;48.564;9.302;2023-06-22T14:12:09;16.88;;;5.30;;
66118;SDS011;52912;48.564;9.302;2023-06-22T14:14:36;13.60;;;4.90;;
66118;SDS011;52912;48.564;9.302;2023-06-22T14:17:02;16.92;;;5.30;;
66118;SDS011;52912;48.564;9.302;2023-06-22T14:19:28;15.68;;;5.38;;
66118;SDS011;52912;48.564;9.302;2023-06-22T14:21:54;20.52;;;5.80;;
66118;SDS011;52912;48.564;9.302;2023-06-22T14:24:19;21.90;;;5.55;;
66118;SDS011;52912;48.564;9.302;2023-06-22T14:26:45;17.25;;;6.03;;